Time;durP1;ratioP1;P1;durP2;ratioP2;P2;SDS_P1;SDS_P2;PMS_P1;PMS_P2;Temp;Humidity;BMP_temperature;BMP_pressure;BME280_temperature;BME280_humidity;BME280_pressure;Samples;Min_cycle;Max_cycle;Signal;HPM_P1;HPM_P2
2023/04/21 00:01:44;;;;;;;26.73;23.83;;;6.80;99.90;;;;;;4880277;29;20210;-76
2023/04/21 00:04:13;;;;;;;26.17;23.43;;;6.80;99.90;;;;;;4880300;29;20576;-73
2023/04/21 00:06:43;;;;;;;26.13;23.23;;;6.80;99.90;;;;;;4880103;29;20222;-76
2023/04/21 00:09:13;;;;;;;26.87;23.93;;;6.80;99.90;;;;;;4879721;29;20222;-77
2023/04/21 00:11:41;;;;;;;25.97;23.07;;;6.90;99.90;;;;;;4880508;29;20214;-74
2023/04/21 00:14:09;;;;;;;25.03;22.37;;;6.90;99.90;;;;;;4881204;29;20220;-76
2023/04/21 00:16:37;;;;;;;26.47;23.60;;;6.90;99.90;;;;;;4890953;29;20301;-78
2023/04/21 00:19:06;;;;;;;28.80;24.83;;;6.90;99.90;;;;;;4898548;29;20235;-76
2023/04/21 00:21:34;;;;;;;26.87;24.07;;;6.90;99.90;;;;;;4898743;29;20625;-76
2023/04/21 00:24:03;;;;;;;27.47;24.03;;;6.90;99.90;;;;;;4898238;29;20259;-76
2023/04/21 00:26:32;;;;;;;25.37;22.67;;;6.90;99.90;;;;;;4881556;29;20218;-72
2023/04/21 00:29:00;;;;;;;25.47;22.73;;;6.90;99.90;;;;;;4879027;29;20301;-76
2023/04/21 00:31:28;;;;;;;26.73;23.80;;;6.90;99.90;;;;;;4879244;29;20778;-75
2023/04/21 00:33:57;;;;;;;26.57;23.67;;;6.90;99.90;;;;;;4879386;29;20364;-76
2023/04/21 00:36:27;;;;;;;28.73;24.10;;;6.80;99.90;;;;;;4879162;29;20210;-75
2023/04/21 00:38:55;;;;;;;26.70;23.90;;;6.90;99.90;;;;;;4879606;29;20221;-75
2023/04/21 00:41:23;;;;;;;27.13;24.17;;;6.90;99.90;;;;;;4879745;29;20215;-71
2023/04/21 00:44:03;;;;;;;27.77;24.03;;;6.90;99.90;;;;;;4878795;29;20246;-75
2023/04/21 00:46:35;;;;;;;27.13;23.93;;;6.90;99.90;;;;;;4879199;29;20220;-74
2023/04/21 00:49:05;;;;;;;27.20;23.87;;;6.90;99.90;;;;;;4879556;29;20252;-76
2023/04/21 00:51:35;;;;;;;26.93;23.57;;;6.90;99.90;;;;;;4879266;29;20270;-78
2023/04/21 00:54:05;;;;;;;26.70;23.13;;;6.90;99.90;;;;;;4892846;29;20244;-76
2023/04/21 00:56:35;;;;;;;27.90;23.37;;;6.80;99.90;;;;;;4898808;29;20220;-78
2023/04/21 00:59:05;;;;;;;28.13;25.10;;;6.80;99.90;;;;;;4897914;29;20213;-79
2023/04/21 01:01:35;;;;;;;26.20;23.23;;;6.80;99.90;;;;;;4879168;29;20263;-76
2023/04/21 01:04:04;;;;;;;29.30;25.30;;;6.80;99.90;;;;;;4878837;29;20245;-77
2023/04/21 01:06:33;;;;;;;26.73;23.87;;;6.80;99.90;;;;;;4878805;29;20266;-77
2023/04/21 01:09:03;;;;;;;28.53;24.80;;;6.80;99.90;;;;;;4878641;29;20222;-76
2023/04/21 01:11:32;;;;;;;27.03;24.13;;;6.80;99.90;;;;;;4878396;29;20230;-77
2023/04/21 01:14:00;;;;;;;27.67;24.67;;;6.80;99.90;;;;;;4880359;29;20220;-76
2023/04/21 01:16:31;;;;;;;27.50;24.53;;;6.80;99.90;;;;;;4879908;29;20218;-78
2023/04/21 01:18:59;;;;;;;27.60;24.47;;;6.80;99.90;;;;;;4878235;29;20265;-77
2023/04/21 01:21:30;;;;;;;28.83;24.23;;;6.80;99.90;;;;;;4878956;29;20266;-77
2023/04/21 01:24:01;;;;;;;28.50;24.97;;;6.70;99.90;;;;;;4878435;29;20215;-76
2023/04/21 01:26:29;;;;;;;30.10;25.20;;;6.70;99.90;;;;;;4878523;29;20221;-77
2023/04/21 01:28:57;;;;;;;29.47;25.93;;;6.80;99.90;;;;;;4878490;29;20282;-78
2023/04/21 01:31:26;;;;;;;26.17;23.33;;;6.80;99.90;;;;;;4878391;29;20314;-77
2023/04/21 01:33:54;;;;;;;28.13;25.10;;;6.70;99.90;;;;;;4878535;29;20230;-77
2023/04/21 01:36:23;;;;;;;27.50;24.33;;;6.70;99.90;;;;;;4877942;29;20210;-78
2023/04/21 01:38:51;;;;;;;30.03;26.00;;;6.70;99.90;;;;;;4878170;29;20229;-75
2023/04/21 01:41:20;;;;;;;29.00;25.17;;;6.70;99.90;;;;;;4878021;29;20210;-78
2023/04/21 01:43:48;;;;;;;30.50;25.50;;;6.70;99.90;;;;;;4878198;29;20244;-77
2023/04/21 01:46:19;;;;;;;31.57;26.60;;;6.70;99.90;;;;;;4877923;29;20211;-79
2023/04/21 01:48:48;;;;;;;28.83;25.77;;;6.70;99.90;;;;;;4878538;29;20213;-77
2023/04/21 01:51:16;;;;;;;30.07;26.10;;;6.70;99.90;;;;;;4879295;29;20631;-78
2023/04/21 01:53:44;;;;;;;29.63;26.43;;;6.70;99.90;;;;;;4896485;29;20628;-76
2023/04/21 01:56:14;;;;;;;29.43;26.10;;;6.70;99.90;;;;;;4881263;29;20715;-78
2023/04/21 01:58:43;;;;;;;29.10;25.93;;;6.70;99.90;;;;;;4876530;29;20198;-76
2023/04/21 02:01:11;;;;;;;30.03;25.47;;;6.80;99.90;;;;;;4876484;29;20691;-76
2023/04/21 02:03:40;;;;;;;32.77;25.80;;;6.70;99.90;;;;;;4876491;29;20209;-74
2023/04/21 02:06:08;;;;;;;29.20;25.00;;;6.70;99.90;;;;;;4877119;29;20849;-74
2023/04/21 02:08:36;;;;;;;27.33;24.33;;;6.70;99.90;;;;;;4876535;29;20673;-78
2023/04/21 02:11:04;;;;;;;28.90;24.63;;;6.70;99.90;;;;;;4877180;29;20700;-76
2023/04/21 02:13:33;;;;;;;26.93;23.83;;;6.60;99.90;;;;;;4877772;29;20554;-78
2023/04/21 02:16:02;;;;;;;27.80;22.83;;;6.60;99.90;;;;;;4878326;29;20229;-77
2023/04/21 02:18:41;;;;;;;25.63;22.87;;;6.60;99.90;;;;;;4877710;29;20202;-76
2023/04/21 02:21:09;;;;;;;26.10;23.30;;;6.50;99.90;;;;;;4877895;29;20214;-77
2023/04/21 02:23:37;;;;;;;27.13;23.47;;;6.50;99.90;;;;;;4877399;29;20213;-78
2023/04/21 02:26:05;;;;;;;26.47;23.60;;;6.40;99.90;;;;;;4878325;29;20210;-76
2023/04/21 02:28:33;;;;;;;26.13;23.43;;;6.40;99.90;;;;;;4878072;29;20214;-76
2023/04/21 02:31:03;;;;;;;26.03;22.90;;;6.40;99.90;;;;;;4887441;29;20237;-77
2023/04/21 02:33:31;;;;;;;24.47;21.87;;;6.30;99.90;;;;;;4877005;29;20225;-76
2023/04/21 02:35:59;;;;;;;28.97;24.70;;;6.30;99.90;;;;;;4878138;29;20214;-75
2023/04/21 02:38:27;;;;;;;25.77;22.73;;;6.20;99.90;;;;;;4877946;29;20588;-75
2023/04/21 02:40:56;;;;;;;28.10;23.63;;;6.20;99.90;;;;;;4881604;29;20676;-77
2023/04/21 02:43:24;;;;;;;24.97;22.37;;;6.10;99.90;;;;;;4896827;29;20218;-78
2023/04/21 02:45:52;;;;;;;25.40;22.60;;;6.10;99.90;;;;;;4896852;29;20551;-78
2023/04/21 02:48:22;;;;;;;25.60;22.83;;;6.10;99.90;;;;;;4896669;29;20308;-78
2023/04/21 02:50:51;;;;;;;25.57;22.53;;;6.10;99.90;;;;;;4895242;29;20233;-79
2023/04/21 02:53:20;;;;;;;26.97;24.07;;;6.10;99.90;;;;;;4899906;29;20217;-76
2023/04/21 02:55:49;;;;;;;26.07;23.37;;;6.00;99.90;;;;;;4900271;29;20234;-77
2023/04/21 02:58:18;;;;;;;26.83;23.53;;;6.10;99.90;;;;;;4900220;29;20269;-77
2023/04/21 03:00:47;;;;;;;27.23;24.30;;;6.00;99.90;;;;;;4884508;29;20250;-78
2023/04/21 03:03:15;;;;;;;26.43;23.60;;;6.00;99.90;;;;;;4881188;29;20608;-77
2023/04/21 03:05:45;;;;;;;28.03;24.53;;;6.00;99.90;;;;;;4881432;29;20307;-75
2023/04/21 03:08:13;;;;;;;26.77;23.97;;;6.00;99.90;;;;;;4889080;29;20245;-77
2023/04/21 03:10:41;;;;;;;26.50;23.60;;;6.00;99.90;;;;;;4900134;29;20241;-78
2023/04/21 03:13:10;;;;;;;27.07;24.17;;;6.00;99.90;;;;;;4899553;29;20220;-77
2023/04/21 03:15:38;;;;;;;27.77;24.77;;;6.00;99.90;;;;;;4899741;29;20547;-76
2023/04/21 03:18:06;;;;;;;26.03;23.30;;;6.00;99.90;;;;;;4883005;29;20580;-79
2023/04/21 03:20:34;;;;;;;28.20;24.73;;;5.90;99.90;;;;;;4880889;29;20225;-79
2023/04/21 03:23:03;;;;;;;29.53;24.80;;;5.90;99.90;;;;;;4880709;29;20210;-79
2023/04/21 03:25:32;;;;;;;32.87;26.83;;;5.90;99.90;;;;;;4880449;29;20578;-77
2023/04/21 03:28:00;;;;;;;29.30;25.10;;;5.90;99.90;;;;;;4880651;29;20313;-80
2023/04/21 03:30:28;;;;;;;34.97;27.10;;;5.90;99.90;;;;;;4880645;29;20226;-76
2023/04/21 03:32:57;;;;;;;32.37;26.73;;;5.90;99.90;;;;;;4880276;29;20231;-73
2023/04/21 03:35:25;;;;;;;30.13;25.90;;;5.80;99.90;;;;;;4880736;29;20214;-78
2023/04/21 03:37:54;;;;;;;29.13;26.03;;;5.90;99.90;;;;;;4880766;29;20573;-80
2023/04/21 03:40:23;;;;;;;29.83;25.63;;;5.80;99.90;;;;;;4881195;29;20225;-78
2023/04/21 03:42:52;;;;;;;30.23;26.17;;;5.80;99.90;;;;;;4880799;29;20207;-76
2023/04/21 03:45:21;;;;;;;30.30;26.50;;;5.70;99.90;;;;;;4880734;29;20222;-77
2023/04/21 03:47:52;;;;;;;30.63;26.17;;;5.70;99.90;;;;;;4880699;29;20214;-79
2023/04/21 03:50:21;;;;;;;30.43;25.97;;;5.70;99.90;;;;;;4894676;29;20217;-79
2023/04/21 03:52:49;;;;;;;29.53;25.73;;;5.60;99.90;;;;;;4898839;29;20316;-75
2023/04/21 03:55:17;;;;;;;31.17;26.70;;;5.60;99.90;;;;;;4893178;29;20221;-77
2023/04/21 03:57:46;;;;;;;29.87;26.57;;;5.50;99.90;;;;;;4892293;29;20221;-76
2023/04/21 04:00:15;;;;;;;31.43;25.90;;;5.50;99.90;;;;;;4884880;29;20309;-79
2023/04/21 04:02:43;;;;;;;28.67;25.67;;;5.40;99.90;;;;;;4878834;29;20677;-79
2023/04/21 04:05:11;;;;;;;32.43;26.47;;;5.40;99.90;;;;;;4880370;29;20214;-76
2023/04/21 04:07:39;;;;;;;31.87;25.83;;;5.40;99.90;;;;;;4880428;29;20585;-77
2023/04/21 04:10:08;;;;;;;35.23;26.30;;;5.40;99.90;;;;;;4880327;29;20214;-77
2023/04/21 04:12:36;;;;;;;32.50;27.57;;;5.40;99.90;;;;;;4879809;29;20230;-76
2023/04/21 04:15:07;;;;;;;30.53;27.20;;;5.40;99.90;;;;;;4880085;29;20214;-79
2023/04/21 04:17:35;;;;;;;29.40;26.17;;;5.40;99.90;;;;;;4880240;29;20210;-78
2023/04/21 04:20:05;;;;;;;30.50;26.10;;;5.40;99.90;;;;;;4879683;29;20218;-78
2023/04/21 04:22:33;;;;;;;29.53;26.33;;;5.40;99.90;;;;;;4879851;29;20293;-75
2023/04/21 04:25:01;;;;;;;30.27;25.57;;;5.40;99.90;;;;;;4879899;29;20264;-78
2023/04/21 04:27:30;;;;;;;28.10;25.20;;;5.40;99.90;;;;;;4890215;29;20297;-79
2023/04/21 04:29:58;;;;;;;28.60;25.53;;;5.50;99.90;;;;;;4888651;29;20253;-79
2023/04/21 04:32:28;;;;;;;29.90;26.70;;;5.50;99.90;;;;;;4889035;29;20244;-78
2023/04/21 04:34:57;;;;;;;27.53;24.67;;;5.50;99.90;;;;;;4888178;29;20210;-77
2023/04/21 04:37:27;;;;;;;27.90;24.90;;;5.50;99.90;;;;;;4890445;29;20238;-76
2023/04/21 04:39:55;;;;;;;29.67;25.57;;;5.50;99.90;;;;;;4889156;29;20221;-77
2023/04/21 04:42:24;;;;;;;30.63;25.57;;;5.50;99.90;;;;;;4892054;29;20297;-77
2023/04/21 04:44:53;;;;;;;29.83;26.60;;;5.60;99.90;;;;;;4890464;29;20213;-78
2023/04/21 04:47:21;;;;;;;28.67;24.73;;;5.60;99.90;;;;;;4890324;29;20209;-76
2023/04/21 04:49:51;;;;;;;27.83;24.90;;;5.60;99.90;;;;;;4889541;29;20669;-79
2023/04/21 04:52:19;;;;;;;26.63;23.73;;;5.60;99.90;;;;;;4890260;29;20714;-75
2023/04/21 04:54:47;;;;;;;27.87;24.60;;;5.70;99.90;;;;;;4888576;29;20205;-78
2023/04/21 04:57:15;;;;;;;26.73;23.83;;;5.70;99.90;;;;;;4888726;29;20214;-78
2023/04/21 04:59:43;;;;;;;28.97;24.20;;;5.70;99.90;;;;;;4888313;29;20218;-78
2023/04/21 05:02:11;;;;;;;25.60;22.77;;;5.80;99.90;;;;;;4889712;29;20288;-79
2023/04/21 05:04:41;;;;;;;26.17;23.47;;;5.80;99.90;;;;;;4882760;29;20225;-77
2023/04/21 05:07:10;;;;;;;25.00;22.30;;;5.90;99.90;;;;;;4888976;29;20317;-76
2023/04/21 05:09:38;;;;;;;25.37;22.67;;;5.90;99.90;;;;;;4883329;29;20587;-76
2023/04/21 05:12:07;;;;;;;24.33;21.73;;;6.00;99.90;;;;;;4883041;29;20704;-76
2023/04/21 05:14:35;;;;;;;24.43;21.70;;;5.90;99.90;;;;;;4881222;29;20218;-75
2023/04/21 05:17:04;;;;;;;24.20;21.70;;;6.00;99.90;;;;;;4879523;29;20249;-76
2023/04/21 05:19:35;;;;;;;24.23;21.70;;;6.10;99.90;;;;;;4878844;29;20226;-79
2023/04/21 05:22:05;;;;;;;24.27;21.10;;;6.10;99.90;;;;;;4886440;29;20194;-77
2023/04/21 05:24:35;;;;;;;25.30;22.67;;;6.10;99.90;;;;;;4896901;29;20230;-75
2023/04/21 05:27:03;;;;;;;24.53;22.00;;;6.20;99.90;;;;;;4896164;29;20301;-75
2023/04/21 05:29:33;;;;;;;23.70;21.17;;;6.40;99.90;;;;;;4897011;29;20217;-76
2023/04/21 05:32:01;;;;;;;27.83;22.43;;;6.50;99.90;;;;;;4896616;29;20213;-74
2023/04/21 05:34:29;;;;;;;24.17;21.67;;;6.60;99.90;;;;;;4897407;29;20625;-76
2023/04/21 05:36:57;;;;;;;24.37;21.80;;;6.70;99.90;;;;;;4894902;29;20222;-75
2023/04/21 05:39:27;;;;;;;27.93;22.53;;;6.70;99.90;;;;;;4903131;29;20221;-79
2023/04/21 05:41:57;;;;;;;24.77;21.50;;;6.80;99.90;;;;;;4894288;29;20225;-76
2023/04/21 05:44:25;;;;;;;23.33;20.83;;;7.00;99.90;;;;;;4897238;29;20217;-78
2023/04/21 05:46:53;;;;;;;22.97;19.83;;;7.00;99.90;;;;;;4889351;29;20218;-76
2023/04/21 05:49:21;;;;;;;22.10;19.80;;;7.00;99.90;;;;;;4896937;29;20295;-77
2023/04/21 05:51:49;;;;;;;28.37;24.63;;;7.10;99.90;;;;;;4896521;29;20307;-78
2023/04/21 05:54:18;;;;;;;23.20;20.73;;;7.30;99.90;;;;;;4892609;29;20585;-75
2023/04/21 05:56:47;;;;;;;21.57;19.37;;;7.30;99.90;;;;;;4896914;29;20209;-78
2023/04/21 05:59:16;;;;;;;22.00;19.70;;;7.50;99.90;;;;;;4894290;29;20218;-79
2023/04/21 06:01:45;;;;;;;21.83;19.53;;;7.70;99.90;;;;;;4897102;29;20241;-77
2023/04/21 06:04:13;;;;;;;21.70;19.50;;;7.70;99.90;;;;;;4896851;29;20293;-76
2023/04/21 06:06:43;;;;;;;21.27;18.77;;;7.90;99.90;;;;;;4896570;29;20224;-76
2023/04/21 06:09:14;;;;;;;21.93;19.63;;;8.20;99.90;;;;;;4893949;29;20224;-73
2023/04/21 06:11:42;;;;;;;19.70;17.70;;;8.50;99.90;;;;;;4895048;29;20293;-74
2023/04/21 06:14:10;;;;;;;20.67;18.57;;;8.90;99.90;;;;;;4896765;29;20233;-74
2023/04/21 06:16:40;;;;;;;20.20;18.20;;;9.30;99.90;;;;;;4892488;29;20209;-73
2023/04/21 06:19:08;;;;;;;20.07;17.97;;;10.20;99.90;;;;;;4896860;29;20240;-73
2023/04/21 06:21:36;;;;;;;19.47;17.47;;;10.80;99.90;;;;;;4894112;29;20651;-76
2023/04/21 06:24:05;;;;;;;18.17;16.37;;;11.40;99.90;;;;;;4893842;29;20219;-74
2023/04/21 06:26:33;;;;;;;18.57;16.67;;;12.10;99.90;;;;;;4904675;29;20241;-73
2023/04/21 06:29:01;;;;;;;17.97;16.27;;;12.50;99.90;;;;;;4910578;29;20214;-72
2023/04/21 06:31:30;;;;;;;18.53;16.73;;;12.50;99.90;;;;;;4904555;29;20209;-75
2023/04/21 06:33:59;;;;;;;18.37;16.57;;;12.70;99.90;;;;;;4891859;29;20238;-77
2023/04/21 06:36:27;;;;;;;18.13;16.30;;;13.20;99.90;;;;;;4882263;29;20219;-73
2023/04/21 06:38:55;;;;;;;17.73;15.87;;;13.80;99.90;;;;;;4882342;29;20248;-75
2023/04/21 06:41:23;;;;;;;17.90;16.17;;;13.60;99.90;;;;;;4887929;29;20234;-74
2023/04/21 06:43:52;;;;;;;17.63;15.93;;;13.90;99.90;;;;;;4899693;29;20297;-74
2023/04/21 06:46:20;;;;;;;17.20;15.50;;;14.10;99.90;;;;;;4898937;29;20306;-76
2023/04/21 06:48:48;;;;;;;16.33;14.83;;;14.70;99.90;;;;;;4897610;29;20866;-74
2023/04/21 06:51:17;;;;;;;17.03;15.53;;;15.20;99.90;;;;;;4900995;29;20305;-76
2023/04/21 06:53:45;;;;;;;15.83;14.23;;;15.70;99.90;;;;;;4912520;29;20265;-73
2023/04/21 06:56:14;;;;;;;15.37;13.97;;;16.00;99.90;;;;;;4916638;29;20216;-73
2023/04/21 06:58:45;;;;;;;21.63;14.67;;;16.70;99.90;;;;;;4886518;29;20226;-74
2023/04/21 07:01:13;;;;;;;16.67;15.07;;;16.60;99.90;;;;;;4878640;29;20297;-73
2023/04/21 07:03:41;;;;;;;15.60;14.20;;;16.70;99.90;;;;;;4878945;29;20256;-75
2023/04/21 07:06:10;;;;;;;15.33;13.90;;;17.40;99.90;;;;;;4878977;29;20218;-74
2023/04/21 07:08:40;;;;;;;16.50;14.90;;;17.10;99.90;;;;;;4879059;29;20318;-72
2023/04/21 07:11:08;;;;;;;16.27;14.70;;;16.90;99.90;;;;;;4879645;29;20222;-77
2023/04/21 07:13:36;;;;;;;15.70;14.10;;;16.70;99.90;;;;;;4881112;29;20261;-73
2023/04/21 07:16:04;;;;;;;17.37;15.63;;;16.90;99.90;;;;;;4881046;29;20245;-75
2023/04/21 07:18:33;;;;;;;16.20;14.70;;;16.50;99.90;;;;;;4881014;29;20229;-74
2023/04/21 07:21:05;;;;;;;15.80;14.30;;;16.20;99.90;;;;;;4880948;29;20246;-74
2023/04/21 07:23:33;;;;;;;16.53;14.93;;;17.10;99.90;;;;;;4880739;29;20221;-73
2023/04/21 07:26:03;;;;;;;15.87;14.40;;;18.20;99.90;;;;;;4880593;29;20305;-76
2023/04/21 07:28:31;;;;;;;15.67;14.17;;;18.50;98.80;;;;;;4880691;29;20304;-74
2023/04/21 07:30:59;;;;;;;15.43;14.03;;;18.60;97.10;;;;;;4880856;29;20369;-74
2023/04/21 07:33:30;;;;;;;15.13;13.63;;;18.70;96.10;;;;;;4880532;29;20700;-75
2023/04/21 07:35:58;;;;;;;14.80;13.10;;;19.10;96.30;;;;;;4880864;29;20648;-78
2023/04/21 07:38:26;;;;;;;15.37;13.87;;;19.40;95.90;;;;;;4879255;29;20218;-74
2023/04/21 07:40:55;;;;;;;14.73;13.33;;;18.50;96.70;;;;;;4880673;29;20699;-74
2023/04/21 07:43:25;;;;;;;14.53;13.23;;;18.20;95.70;;;;;;4885471;29;20301;-74
2023/04/21 07:45:53;;;;;;;15.27;13.87;;;17.60;96.30;;;;;;4899145;29;20221;-75
2023/04/21 07:48:22;;;;;;;15.67;14.17;;;17.00;99.30;;;;;;4899307;29;20499;-73
2023/04/21 07:50:50;;;;;;;16.27;14.63;;;16.80;99.90;;;;;;4887238;29;20221;-74
2023/04/21 07:53:18;;;;;;;16.50;14.77;;;16.60;99.90;;;;;;4880578;29;20313;-73
2023/04/21 07:55:46;;;;;;;16.43;14.83;;;16.40;99.90;;;;;;4880644;29;20624;-76
2023/04/21 07:58:15;;;;;;;15.63;14.13;;;16.40;99.90;;;;;;4880076;29;20551;-79
2023/04/21 08:00:44;;;;;;;15.27;13.87;;;16.60;99.90;;;;;;4899714;29;20304;-76
2023/04/21 08:03:13;;;;;;;16.63;14.87;;;16.80;99.90;;;;;;4899125;29;20217;-73
2023/04/21 08:05:41;;;;;;;16.30;14.80;;;16.30;99.90;;;;;;4899638;29;20244;-78
2023/04/21 08:08:09;;;;;;;17.27;15.57;;;16.00;99.90;;;;;;4886091;29;20210;-78
2023/04/21 08:10:37;;;;;;;16.87;15.27;;;16.50;99.90;;;;;;4880409;29;20741;-76
2023/04/21 08:13:12;;;;;;;16.60;14.90;;;16.30;99.90;;;;;;4880299;29;20743;-76
2023/04/21 08:15:59;;;;;;;15.97;14.37;;;15.90;99.90;;;;;;4880645;29;20297;-75
2023/04/21 08:18:27;;;;;;;16.20;14.70;;;15.90;99.90;;;;;;4880278;29;20218;-76
2023/04/21 08:20:56;;;;;;;16.17;14.57;;;16.60;99.90;;;;;;4879807;29;20645;-77
2023/04/21 08:23:25;;;;;;;17.40;15.07;;;17.60;99.90;;;;;;4879523;29;20728;-74
2023/04/21 08:25:53;;;;;;;16.10;14.50;;;18.30;99.90;;;;;;4879927;29;20254;-74
2023/04/21 08:28:21;;;;;;;15.77;14.17;;;19.30;96.00;;;;;;4879992;29;20206;-76
2023/04/21 08:30:49;;;;;;;16.50;14.90;;;20.10;94.40;;;;;;4880243;29;20581;-76
2023/04/21 08:33:19;;;;;;;16.60;15.10;;;19.50;93.90;;;;;;4879325;29;20293;-75
2023/04/21 08:35:47;;;;;;;14.82;13.32;;;20.30;93.00;;;;;;4879585;29;20704;-77
2023/04/21 08:38:34;;;;;;;16.67;15.07;;;21.50;91.50;;;;;;4881651;29;20594;-75
2023/04/21 08:41:04;;;;;;;15.68;14.18;;;20.10;90.30;;;;;;4880534;29;20257;-73
2023/04/21 08:43:33;;;;;;;15.23;13.82;;;20.00;93.00;;;;;;4898296;29;20244;-74
2023/04/21 08:46:05;;;;;;;15.13;13.75;;;20.30;92.90;;;;;;4902657;29;20255;-73
2023/04/21 08:48:37;;;;;;;16.17;14.68;;;20.90;94.00;;;;;;4900494;29;20233;-75
2023/04/21 08:51:08;;;;;;;14.80;13.30;;;21.80;89.40;;;;;;4886860;29;20581;-77
2023/04/21 08:53:37;;;;;;;14.45;13.15;;;21.70;88.80;;;;;;4882611;29;20325;-75
2023/04/21 08:56:06;;;;;;;15.23;13.75;;;21.20;89.30;;;;;;4882646;29;20222;-72
2023/04/21 08:58:40;;;;;;;15.00;13.52;;;21.00;89.10;;;;;;4880667;29;20215;-72
2023/04/21 09:01:08;;;;;;;15.10;13.60;;;21.40;88.00;;;;;;4880287;29;20566;-78
2023/04/21 09:03:38;;;;;;;13.98;12.65;;;22.40;87.30;;;;;;4879208;29;20210;-76
2023/04/21 09:06:08;;;;;;;16.15;14.65;;;21.30;89.00;;;;;;4879888;29;20232;-75
2023/04/21 09:08:42;;;;;;;15.63;14.23;;;19.80;91.60;;;;;;4884047;29;20210;-76
2023/04/21 09:11:14;;;;;;;15.63;14.00;;;19.70;91.10;;;;;;4887430;29;20222;-73
2023/04/21 09:13:43;;;;;;;14.38;13.05;;;20.00;92.70;;;;;;4879005;29;20673;-73
2023/04/21 09:16:18;;;;;;;14.43;13.05;;;20.50;90.00;;;;;;4879075;29;20293;-75
2023/04/21 09:18:49;;;;;;;15.38;13.40;;;20.20;91.90;;;;;;4879314;29;20269;-75
2023/04/21 09:21:19;;;;;;;13.15;11.88;;;21.80;90.40;;;;;;4885668;29;20219;-73
2023/04/21 09:23:50;;;;;;;12.40;11.23;;;23.00;86.30;;;;;;4883782;29;20305;-77
2023/04/21 09:26:20;;;;;;;13.00;11.80;;;24.60;82.60;;;;;;4880278;29;20241;-76
2023/04/21 09:28:49;;;;;;;13.25;11.80;;;24.70;80.70;;;;;;4879317;29;20291;-75
2023/04/21 09:31:19;;;;;;;13.85;12.45;;;24.20;78.20;;;;;;4878940;29;20266;-74
2023/04/21 09:33:50;;;;;;;13.00;11.80;;;23.30;79.50;;;;;;4878712;29;20262;-76
2023/04/21 09:36:23;;;;;;;13.68;12.48;;;22.20;81.60;;;;;;4878908;29;20218;-73
2023/04/21 09:38:57;;;;;;;13.55;12.32;;;23.10;82.60;;;;;;4878992;29;20214;-76
2023/04/21 09:41:45;;;;;;;14.50;13.20;;;23.40;78.40;;;;;;4892812;29;20316;-76
2023/04/21 09:44:13;;;;;;;14.13;12.73;;;23.00;78.50;;;;;;4893970;29;20210;-76
2023/04/21 09:46:43;;;;;;;14.00;12.80;;;23.70;78.80;;;;;;4878613;29;20226;-74
2023/04/21 09:49:16;;;;;;;14.48;13.18;;;21.80;82.00;;;;;;4878664;29;20266;-76
2023/04/21 09:51:45;;;;;;;14.63;12.45;;;22.10;78.40;;;;;;4878682;29;20201;-76
2023/04/21 09:54:18;;;;;;;14.25;12.80;;;22.50;81.50;;;;;;4878698;29;20230;-75
2023/04/21 09:56:52;;;;;;;14.02;12.63;;;21.60;83.30;;;;;;4878780;29;20218;-74
2023/04/21 09:59:26;;;;;;;13.48;12.18;;;21.70;83.00;;;;;;4878184;29;20202;-77
2023/04/21 10:01:57;;;;;;;13.43;12.02;;;22.60;83.10;;;;;;4877102;29;20206;-74
2023/04/21 10:04:28;;;;;;;11.88;10.77;;;22.50;80.90;;;;;;4878428;29;20618;-74
2023/04/21 10:06:58;;;;;;;11.75;10.18;;;22.70;78.80;;;;;;4878080;29;20305;-76
2023/04/21 10:09:31;;;;;;;10.43;9.45;;;23.40;73.30;;;;;;4878100;29;20218;-74
2023/04/21 10:12:01;;;;;;;10.90;9.80;;;23.60;75.60;;;;;;4878022;29;20228;-75
2023/04/21 10:14:29;;;;;;;11.68;10.57;;;23.80;75.30;;;;;;4878369;29;20194;-74
2023/04/21 10:17:03;;;;;;;11.52;10.43;;;23.60;75.90;;;;;;4878322;29;20306;-73
2023/04/21 10:19:38;;;;;;;11.55;10.20;;;22.90;78.70;;;;;;4878483;29;20222;-74
2023/04/21 10:22:08;;;;;;;11.98;10.70;;;23.20;80.10;;;;;;4877594;29;20712;-72
2023/04/21 10:24:38;;;;;;;11.80;10.25;;;21.90;78.70;;;;;;4878711;29;20265;-75
2023/04/21 10:27:11;;;;;;;11.00;10.00;;;21.80;78.40;;;;;;4884046;29;20210;-74
2023/04/21 10:29:40;;;;;;;9.70;8.23;;;20.50;82.30;;;;;;4880909;29;20222;-76
2023/04/21 10:32:41;;;;;;;11.97;10.40;;;20.90;84.40;;;;;;4879318;29;20302;-75
2023/04/21 10:35:12;;;;;;;10.97;9.80;;;21.00;83.30;;;;;;4880013;29;20222;-75
2023/04/21 10:37:42;;;;;;;10.73;9.60;;;20.40;82.40;;;;;;4882973;29;20305;-75
2023/04/21 10:40:35;;;;;;;12.87;11.67;;;20.20;87.00;;;;;;4891225;29;20229;-76
2023/04/21 10:43:07;;;;;;;11.73;10.53;;;19.00;86.20;;;;;;4896953;29;20205;-77
2023/04/21 10:45:38;;;;;;;12.20;10.70;;;18.10;91.00;;;;;;4889813;29;20324;-78
2023/04/21 10:48:13;;;;;;;13.50;12.13;;;17.80;93.20;;;;;;4878109;29;20269;-75
2023/04/21 10:50:44;;;;;;;13.30;11.90;;;17.40;94.00;;;;;;4878309;29;20210;-75
2023/04/21 10:53:13;;;;;;;14.43;11.53;;;16.90;95.80;;;;;;4885767;29;20203;-76
2023/04/21 10:55:42;;;;;;;13.50;12.10;;;16.70;98.70;;;;;;4877865;29;20211;-77
2023/04/21 10:58:11;;;;;;;13.07;11.70;;;16.10;99.70;;;;;;4878198;29;20579;-77
2023/04/21 11:00:40;;;;;;;13.37;12.03;;;16.40;99.90;;;;;;4878712;29;20242;-75
2023/04/21 11:03:08;;;;;;;11.60;10.40;;;18.00;99.90;;;;;;4877532;29;20214;-74
2023/04/21 11:05:39;;;;;;;11.73;10.60;;;19.80;95.40;;;;;;4877388;29;20700;-72
2023/04/21 11:08:12;;;;;;;11.23;10.13;;;19.80;92.30;;;;;;4877858;29;20202;-73
2023/04/21 11:10:53;;;;;;;10.80;9.70;;;19.60;93.50;;;;;;4877885;29;20282;-75
2023/04/21 11:13:23;;;;;;;10.33;9.30;;;19.50;94.30;;;;;;4880591;29;20203;-76
2023/04/21 11:16:02;;;;;;;11.10;9.40;;;19.50;93.00;;;;;;4881366;29;20210;-75
2023/04/21 11:18:37;;;;;;;10.90;9.80;;;18.60;94.90;;;;;;4881450;29;20289;-75
2023/04/21 11:21:16;;;;;;;10.33;9.33;;;18.60;94.20;;;;;;4881528;29;20305;-75
2023/04/21 11:23:51;;;;;;;10.23;9.13;;;18.50;95.80;;;;;;4880676;29;20296;-76
2023/04/21 11:26:30;;;;;;;11.20;10.10;;;18.40;95.20;;;;;;4880943;29;20341;-74
2023/04/21 11:29:01;;;;;;;11.67;10.07;;;18.40;96.50;;;;;;4881151;29;20205;-76
2023/04/21 11:31:30;;;;;;;9.87;8.83;;;18.80;96.80;;;;;;4899375;29;20218;-77
2023/04/21 11:33:59;;;;;;;9.87;8.87;;;19.40;97.10;;;;;;4899646;29;20233;-76
2023/04/21 11:36:28;;;;;;;13.20;10.27;;;19.60;94.70;;;;;;4900078;29;20213;-77
2023/04/21 11:38:58;;;;;;;13.70;10.97;;;19.70;95.20;;;;;;4886934;29;20733;-74
2023/04/21 11:41:26;;;;;;;11.77;10.17;;;18.60;95.20;;;;;;4881096;29;20206;-77
2023/04/21 11:43:55;;;;;;;12.50;10.40;;;19.00;96.90;;;;;;4880163;29;20677;-77
2023/04/21 11:46:24;;;;;;;10.87;9.37;;;19.30;96.20;;;;;;4880583;29;20246;-76
2023/04/21 11:49:00;;;;;;;11.60;8.80;;;20.30;95.60;;;;;;4880640;29;20277;-77
2023/04/21 11:51:33;;;;;;;11.13;8.37;;;20.40;94.40;;;;;;4880710;29;20309;-78
2023/04/21 11:54:05;;;;;;;8.30;7.50;;;20.00;92.80;;;;;;4880467;29;20210;-73
2023/04/21 11:56:36;;;;;;;9.23;8.33;;;19.80;93.60;;;;;;4880850;29;20289;-74
2023/04/21 11:59:07;;;;;;;9.70;8.60;;;19.20;94.20;;;;;;4880535;29;20205;-76
2023/04/21 12:01:42;;;;;;;9.30;8.10;;;19.40;95.20;;;;;;4880280;29;20223;-77
2023/04/21 12:04:14;;;;;;;7.50;6.70;;;18.60;95.30;;;;;;4879013;29;20218;-78
2023/04/21 12:06:43;;;;;;;5.40;4.30;;;19.20;94.70;;;;;;4880420;29;20274;-74
2023/04/21 12:09:19;;;;;;;4.97;4.17;;;19.20;92.20;;;;;;4880139;29;20588;-76
2023/04/21 12:11:49;;;;;;;5.63;4.87;;;19.30;90.70;;;;;;4880030;29;20644;-77
2023/04/21 12:14:19;;;;;;;6.07;5.40;;;18.30;91.10;;;;;;4880558;29;20311;-76
2023/04/21 12:16:50;;;;;;;6.37;4.20;;;18.50;93.60;;;;;;4880381;29;20262;-76
2023/04/21 12:19:25;;;;;;;6.17;4.40;;;18.80;93.30;;;;;;4880201;29;20198;-77
2023/04/21 12:21:54;;;;;;;6.33;4.17;;;19.10;92.70;;;;;;4881826;29;20238;-76
2023/04/21 12:24:24;;;;;;;8.23;4.33;;;19.30;93.00;;;;;;4879686;29;20215;-77
2023/04/21 12:26:53;;;;;;;6.07;4.70;;;19.00;92.60;;;;;;4879982;29;20234;-74
2023/04/21 12:29:21;;;;;;;4.90;4.40;;;19.40;94.20;;;;;;4879827;29;20218;-76
2023/04/21 12:31:49;;;;;;;6.70;4.20;;;19.10;93.60;;;;;;4880022;29;20202;-78
2023/04/21 12:34:18;;;;;;;5.67;3.73;;;19.50;93.50;;;;;;4879611;29;20234;-78
2023/04/21 12:36:46;;;;;;;4.20;3.33;;;19.70;93.20;;;;;;4888551;29;20296;-76
2023/04/21 12:39:16;;;;;;;4.97;3.20;;;19.30;87.20;;;;;;4898738;29;20587;-76
2023/04/21 12:41:46;;;;;;;4.67;3.53;;;19.40;90.10;;;;;;4892024;29;20649;-76
2023/04/21 12:44:15;;;;;;;6.33;3.53;;;19.40;90.40;;;;;;4879697;29;20672;-77
2023/04/21 12:46:43;;;;;;;4.07;3.67;;;19.70;90.90;;;;;;4879963;29;20329;-77